Time;durP1;ratioP1;P1;durP2;ratioP2;P2;SDS_P1;SDS_P2;PMS_P1;PMS_P2;Temp;Humidity;BMP_temperature;BMP_pressure;BME280_temperature;BME280_humidity;BME280_pressure;Samples;Min_cycle;Max_cycle;Signal;HPM_P1;HPM_P2
2022/07/31 00:00:30;;;;;;;9.18;3.60;;;19.70;99.90;;;;;;5093272;28;20040;-91
2022/07/31 00:02:56;;;;;;;7.38;3.65;;;19.70;99.90;;;;;;5092263;28;20098;-92
2022/07/31 00:05:23;;;;;;;9.05;3.55;;;19.70;99.90;;;;;;5109182;28;20055;-91
2022/07/31 00:07:49;;;;;;;8.38;3.60;;;19.60;99.90;;;;;;5092056;28;20044;-91
2022/07/31 00:10:15;;;;;;;9.20;3.63;;;19.60;99.90;;;;;;5092796;28;20051;-92
2022/07/31 00:12:41;;;;;;;10.23;3.70;;;19.60;99.90;;;;;;5091681;28;20032;-92
2022/07/31 00:15:11;;;;;;;7.68;3.53;;;19.60;99.90;;;;;;5091452;28;20048;-91
2022/07/31 00:17:41;;;;;;;8.45;3.13;;;19.60;99.90;;;;;;5091842;28;20046;-92
2022/07/31 00:20:08;;;;;;;8.15;3.50;;;19.60;99.90;;;;;;5108697;28;20044;-91
2022/07/31 00:22:34;;;;;;;8.02;3.33;;;19.60;99.90;;;;;;5093211;28;20047;-91
2022/07/31 00:25:00;;;;;;;7.95;3.35;;;19.60;99.90;;;;;;5108975;28;20044;-91
2022/07/31 00:27:25;;;;;;;10.43;3.80;;;19.50;99.90;;;;;;5109311;28;20119;-91
2022/07/31 00:29:51;;;;;;;7.90;3.38;;;19.50;99.90;;;;;;5108116;28;20551;-92
2022/07/31 00:32:17;;;;;;;8.70;3.55;;;19.50;99.90;;;;;;5108607;28;20394;-92
2022/07/31 00:34:42;;;;;;;8.35;3.45;;;19.50;99.90;;;;;;5074550;28;20126;-91
2022/07/31 00:37:09;;;;;;;9.30;3.50;;;19.50;99.90;;;;;;5108557;28;20047;-91
2022/07/31 00:39:35;;;;;;;6.65;3.30;;;19.50;99.90;;;;;;5092601;28;20109;-91
2022/07/31 00:42:01;;;;;;;8.93;3.80;;;19.50;99.90;;;;;;5091402;28;20525;-91
2022/07/31 00:44:27;;;;;;;7.95;3.65;;;19.40;99.90;;;;;;5108209;28;20040;-91
2022/07/31 00:46:53;;;;;;;7.45;3.00;;;19.40;99.90;;;;;;5092565;28;20039;-91
2022/07/31 00:49:19;;;;;;;9.20;3.38;;;19.40;99.90;;;;;;5074050;28;20028;-92
2022/07/31 00:51:45;;;;;;;8.25;3.17;;;19.40;99.90;;;;;;5108350;28;20036;-92
2022/07/31 00:54:11;;;;;;;10.73;3.75;;;19.40;99.90;;;;;;5091139;28;20062;-92
2022/07/31 00:56:36;;;;;;;7.53;3.25;;;19.30;99.90;;;;;;5108280;28;20032;-92
2022/07/31 00:59:03;;;;;;;8.02;3.53;;;19.30;99.90;;;;;;5107829;28;20036;-91
2022/07/31 01:01:29;;;;;;;9.07;3.60;;;19.30;99.90;;;;;;5091133;28;20051;-91
2022/07/31 01:03:55;;;;;;;8.27;3.03;;;19.30;99.90;;;;;;5091159;28;20052;-92
2022/07/31 01:06:21;;;;;;;9.55;3.58;;;19.30;99.90;;;;;;5108129;28;20044;-92
2022/07/31 01:08:47;;;;;;;6.65;3.10;;;19.30;99.90;;;;;;5090963;28;20071;-92
2022/07/31 01:11:23;;;;;;;8.73;3.13;;;19.20;99.90;;;;;;5090665;28;20048;-91
2022/07/31 01:13:54;;;;;;;8.70;3.50;;;19.20;99.90;;;;;;5092406;28;20738;-91
2022/07/31 01:16:23;;;;;;;8.57;3.63;;;19.20;99.90;;;;;;5074024;28;20071;-91
2022/07/31 01:18:51;;;;;;;7.60;3.25;;;19.20;99.90;;;;;;5090784;28;20079;-91
2022/07/31 01:21:24;;;;;;;9.35;3.65;;;19.10;99.90;;;;;;5090819;28;20055;-92
2022/07/31 01:24:09;;;;;;;8.07;3.25;;;19.10;99.90;;;;;;5090814;28;20123;-92
2022/07/31 01:26:55;;;;;;;7.93;3.40;;;19.10;99.90;;;;;;5107806;28;20048;-91
2022/07/31 01:29:34;;;;;;;9.10;3.15;;;19.10;99.90;;;;;;5107496;28;20111;-91
2022/07/31 01:32:07;;;;;;;7.43;3.00;;;19.00;99.90;;;;;;5090803;28;20040;-91
2022/07/31 01:34:41;;;;;;;9.05;3.25;;;19.00;99.90;;;;;;5091893;28;20044;-92
2022/07/31 01:37:33;;;;;;;8.07;3.22;;;19.00;99.90;;;;;;5090695;28;20048;-91
2022/07/31 01:40:10;;;;;;;9.02;3.55;;;19.00;99.90;;;;;;5091766;28;20406;-91
2022/07/31 01:42:39;;;;;;;7.40;3.38;;;18.90;99.90;;;;;;5090456;28;20079;-91
2022/07/31 01:45:09;;;;;;;7.78;3.08;;;18.90;99.90;;;;;;5090451;28;20067;-91
2022/07/31 01:47:36;;;;;;;7.28;3.20;;;18.90;99.90;;;;;;5090960;28;20120;-91
2022/07/31 01:50:04;;;;;;;7.50;3.13;;;18.90;99.90;;;;;;5090224;28;20121;-91
2022/07/31 01:52:31;;;;;;;7.03;3.05;;;18.90;99.90;;;;;;5107895;28;20043;-91
2022/07/31 01:54:58;;;;;;;10.25;3.80;;;18.90;99.90;;;;;;5090552;28;20044;-91
2022/07/31 01:57:26;;;;;;;8.02;3.53;;;18.90;99.90;;;;;;5107779;28;20498;-91
2022/07/31 01:59:55;;;;;;;8.65;3.50;;;18.90;99.90;;;;;;5091355;28;20044;-91
2022/07/31 02:02:21;;;;;;;7.35;3.55;;;18.90;99.90;;;;;;5107577;28;20502;-91
2022/07/31 02:04:48;;;;;;;7.03;3.20;;;18.80;99.90;;;;;;5107626;28;20501;-91
2022/07/31 02:07:15;;;;;;;8.60;3.58;;;18.80;99.90;;;;;;5090316;28;20044;-92
2022/07/31 02:09:46;;;;;;;8.75;3.67;;;18.80;99.90;;;;;;5089982;28;20048;-91
2022/07/31 02:12:11;;;;;;;9.70;3.30;;;18.80;99.90;;;;;;5090640;28;20040;-91
2022/07/31 02:14:40;;;;;;;6.93;3.08;;;18.80;99.90;;;;;;5107260;28;20493;-91
2022/07/31 02:17:07;;;;;;;8.57;3.47;;;18.80;99.90;;;;;;5091751;28;20490;-92
2022/07/31 02:19:36;;;;;;;7.07;3.10;;;18.80;99.90;;;;;;5089917;28;20044;-92
2022/07/31 02:22:02;;;;;;;7.95;3.38;;;18.80;99.90;;;;;;5090348;28;20075;-91
2022/07/31 02:24:28;;;;;;;7.85;3.40;;;18.80;99.90;;;;;;5107172;28;20076;-91
2022/07/31 02:26:55;;;;;;;8.52;3.20;;;18.80;99.90;;;;;;5107292;28;20036;-92
2022/07/31 02:29:22;;;;;;;8.10;3.80;;;18.80;99.90;;;;;;5089871;28;20097;-91
2022/07/31 02:31:50;;;;;;;9.30;3.88;;;18.80;99.90;;;;;;5090296;28;20040;-91
2022/07/31 02:34:17;;;;;;;7.78;3.42;;;18.80;99.90;;;;;;5090262;28;20115;-91
2022/07/31 02:36:45;;;;;;;7.82;3.30;;;18.80;99.90;;;;;;5091659;28;20375;-91
2022/07/31 02:39:13;;;;;;;8.23;3.47;;;18.80;99.90;;;;;;5093537;28;20082;-91
2022/07/31 02:41:40;;;;;;;9.13;3.50;;;18.80;99.90;;;;;;5110905;28;20039;-91
2022/07/31 02:44:06;;;;;;;8.93;3.70;;;18.80;99.90;;;;;;5093593;28;20047;-91
2022/07/31 02:46:33;;;;;;;8.07;3.50;;;18.70;99.90;;;;;;5093548;28;20501;-91
2022/07/31 02:48:59;;;;;;;7.68;3.40;;;18.80;99.90;;;;;;5094759;28;20051;-91
2022/07/31 02:51:24;;;;;;;8.68;3.40;;;18.80;99.90;;;;;;5110159;28;20468;-91
2022/07/31 02:53:50;;;;;;;7.45;3.33;;;18.80;99.90;;;;;;5110509;28;20036;-91
2022/07/31 02:56:17;;;;;;;9.60;3.67;;;18.70;99.90;;;;;;5110316;28;20044;-91
2022/07/31 02:58:42;;;;;;;7.63;3.40;;;18.70;99.90;;;;;;5094775;28;20063;-91
2022/07/31 03:01:08;;;;;;;7.05;3.10;;;18.70;99.90;;;;;;5093339;28;20047;-91
2022/07/31 03:03:34;;;;;;;7.72;3.33;;;18.70;99.90;;;;;;5093644;28;20040;-92
2022/07/31 03:06:00;;;;;;;8.23;3.70;;;18.70;99.90;;;;;;5093105;28;20052;-91
2022/07/31 03:08:26;;;;;;;7.32;3.45;;;18.80;99.90;;;;;;5094582;28;20096;-91
2022/07/31 03:10:52;;;;;;;8.50;3.47;;;18.70;99.90;;;;;;5092850;28;20051;-91
2022/07/31 03:13:19;;;;;;;9.25;3.63;;;18.70;99.90;;;;;;5093119;28;20040;-92
2022/07/31 03:15:47;;;;;;;8.25;3.47;;;18.70;99.90;;;;;;5093133;28;20402;-92
2022/07/31 03:18:15;;;;;;;7.50;3.53;;;18.70;99.90;;;;;;5110223;28;20040;-92
2022/07/31 03:20:41;;;;;;;8.57;3.50;;;18.70;99.90;;;;;;5092633;28;20047;-92
2022/07/31 03:23:10;;;;;;;9.55;3.63;;;18.70;99.90;;;;;;5092966;28;20052;-92
2022/07/31 03:25:36;;;;;;;8.05;3.55;;;18.70;99.90;;;;;;5109892;28;20398;-92
2022/07/31 03:28:01;;;;;;;6.70;3.45;;;18.70;99.90;;;;;;5110162;28;20374;-92
2022/07/31 03:30:27;;;;;;;8.48;3.63;;;18.70;99.90;;;;;;5075757;28;20047;-92
2022/07/31 03:32:54;;;;;;;7.10;3.25;;;18.70;99.90;;;;;;5109944;28;20035;-92
2022/07/31 03:35:20;;;;;;;10.13;3.80;;;18.60;99.90;;;;;;5092791;28;20493;-92
2022/07/31 03:37:46;;;;;;;7.78;3.72;;;18.60;99.90;;;;;;5109710;28;20119;-92
2022/07/31 03:40:12;;;;;;;9.65;3.90;;;18.70;99.90;;;;;;5092315;28;20470;-92
2022/07/31 03:42:37;;;;;;;8.88;3.25;;;18.60;99.90;;;;;;5109496;28;20044;-92
2022/07/31 03:45:04;;;;;;;6.78;3.42;;;18.60;99.90;;;;;;5092410;28;20036;-91
2022/07/31 03:47:30;;;;;;;7.90;3.58;;;18.60;99.90;;;;;;5092990;28;20032;-93
2022/07/31 03:49:59;;;;;;;8.38;4.45;;;18.60;99.90;;;;;;5091964;28;20549;-92
2022/07/31 03:52:25;;;;;;;7.32;3.53;;;18.60;99.90;;;;;;5092581;28;20048;-92
2022/07/31 03:54:51;;;;;;;8.50;4.00;;;18.60;99.90;;;;;;5109386;28;20043;-92
2022/07/31 03:57:17;;;;;;;7.72;3.88;;;18.60;99.90;;;;;;5109294;28;20406;-92
2022/07/31 03:59:44;;;;;;;9.57;4.00;;;18.60;99.90;;;;;;5093286;28;20561;-92
2022/07/31 04:02:10;;;;;;;7.40;3.78;;;18.60;99.90;;;;;;5092076;28;20130;-92
2022/07/31 04:04:36;;;;;;;8.93;4.07;;;18.60;99.90;;;;;;5093418;28;20127;-91
2022/07/31 04:07:03;;;;;;;9.27;3.95;;;18.60;99.90;;;;;;5108904;28;20032;-91
2022/07/31 04:09:28;;;;;;;8.52;3.63;;;18.60;99.90;;;;;;5091810;28;20043;-93
2022/07/31 04:11:54;;;;;;;8.50;4.07;;;18.60;99.90;;;;;;5093212;28;20039;-92
2022/07/31 04:14:20;;;;;;;7.50;3.92;;;18.60;99.90;;;;;;5092224;28;20436;-92
2022/07/31 04:16:45;;;;;;;9.25;4.30;;;18.60;99.90;;;;;;5093080;28;20032;-91
2022/07/31 04:19:11;;;;;;;8.60;3.90;;;18.60;99.90;;;;;;5091294;28;20490;-92
2022/07/31 04:21:37;;;;;;;8.80;3.70;;;18.60;99.90;;;;;;5108988;28;20072;-92
2022/07/31 04:24:03;;;;;;;8.82;4.32;;;18.60;99.90;;;;;;5091874;28;20052;-91
2022/07/31 04:26:28;;;;;;;8.02;3.60;;;18.60;99.90;;;;;;5091845;28;20409;-92
2022/07/31 04:28:54;;;;;;;8.82;4.25;;;18.60;99.90;;;;;;5092872;28;20512;-92
2022/07/31 04:31:19;;;;;;;8.65;3.90;;;18.60;99.90;;;;;;5091183;28;20044;-91
2022/07/31 04:33:45;;;;;;;8.90;3.75;;;18.60;99.90;;;;;;5091842;28;20055;-92
2022/07/31 04:36:11;;;;;;;7.65;3.72;;;18.70;99.90;;;;;;5074670;28;20043;-91
2022/07/31 04:38:36;;;;;;;9.05;3.83;;;18.70;99.90;;;;;;5092819;28;20067;-92
2022/07/31 04:41:02;;;;;;;7.93;3.63;;;18.70;99.90;;;;;;5091118;28;20043;-91
2022/07/31 04:43:27;;;;;;;7.63;3.78;;;18.70;99.90;;;;;;5091284;28;20055;-92
2022/07/31 04:45:53;;;;;;;9.15;4.20;;;18.70;99.90;;;;;;5091184;28;20044;-91
2022/07/31 04:48:18;;;;;;;9.25;3.70;;;18.70;99.90;;;;;;5091423;28;20382;-91
2022/07/31 04:50:44;;;;;;;7.88;3.78;;;18.70;99.90;;;;;;5107993;28;20039;-92
2022/07/31 04:53:10;;;;;;;7.15;3.58;;;18.70;99.90;;;;;;5091349;28;20040;-92
2022/07/31 04:55:36;;;;;;;9.70;4.03;;;18.70;99.90;;;;;;5107972;28;20043;-92
2022/07/31 04:58:01;;;;;;;7.85;4.03;;;18.70;99.90;;;;;;5091156;28;20042;-91
2022/07/31 05:00:27;;;;;;;7.50;3.47;;;18.70;99.90;;;;;;5101458;28;20039;-89
2022/07/31 05:02:53;;;;;;;7.40;3.90;;;18.70;99.90;;;;;;5103898;28;20031;-92
2022/07/31 05:05:18;;;;;;;7.43;3.70;;;18.70;99.90;;;;;;5124150;28;20024;-91
2022/07/31 05:07:44;;;;;;;9.40;4.13;;;18.80;99.90;;;;;;5122538;28;20047;-91
2022/07/31 05:11:21;;;;;;;9.32;4.00;;;18.70;99.90;;;;;;5100242;28;20409;-92
2022/07/31 05:12:56;;;;;;;8.25;3.72;;;18.80;99.90;;;;;;5107114;28;20028;-91
2022/07/31 05:15:24;;;;;;;9.20;3.97;;;18.80;99.90;;;;;;5105464;28;20044;-91
2022/07/31 05:17:50;;;;;;;8.75;3.80;;;18.80;99.90;;;;;;5121990;28;20039;-91
2022/07/31 05:20:16;;;;;;;9.10;4.18;;;18.80;99.90;;;;;;5093169;28;20551;-92
2022/07/31 05:22:41;;;;;;;8.13;3.80;;;18.80;99.90;;;;;;5108260;28;20040;-92
2022/07/31 05:25:07;;;;;;;8.02;3.67;;;18.80;99.90;;;;;;5108392;28;20048;-92
2022/07/31 05:27:33;;;;;;;8.63;3.92;;;18.80;99.90;;;;;;5107768;28;20036;-93
2022/07/31 05:29:59;;;;;;;8.65;4.30;;;18.80;99.90;;;;;;5107540;28;20087;-93
2022/07/31 05:32:24;;;;;;;7.63;4.20;;;18.90;99.90;;;;;;5074167;28;20040;-92
2022/07/31 05:34:50;;;;;;;8.52;4.20;;;18.90;99.90;;;;;;5107520;28;20473;-92
2022/07/31 05:37:15;;;;;;;10.50;4.20;;;18.90;99.90;;;;;;5090776;28;20088;-92
2022/07/31 05:39:41;;;;;;;9.25;4.82;;;18.90;99.90;;;;;;5090212;28;20040;-92
2022/07/31 05:42:06;;;;;;;9.35;4.25;;;18.90;99.90;;;;;;5090669;28;20036;-92
2022/07/31 05:44:32;;;;;;;9.52;4.00;;;19.00;99.90;;;;;;5107522;28;20064;-93
2022/07/31 05:46:58;;;;;;;8.75;4.35;;;19.00;99.90;;;;;;5073767;28;20112;-93
2022/07/31 05:49:26;;;;;;;9.38;4.13;;;19.00;99.90;;;;;;5124376;27;20125;-92
2022/07/31 05:51:55;;;;;;;7.47;4.22;;;19.00;99.90;;;;;;5092046;28;20439;-93
2022/07/31 05:54:21;;;;;;;8.07;4.40;;;19.10;99.90;;;;;;5090492;28;20111;-93
2022/07/31 05:56:47;;;;;;;10.05;4.30;;;19.10;99.90;;;;;;5090083;28;20047;-92
2022/07/31 05:59:12;;;;;;;8.13;4.13;;;19.10;99.90;;;;;;5107226;28;20048;-93
2022/07/31 06:01:38;;;;;;;7.65;4.30;;;19.10;99.90;;;;;;5107181;28;20043;-93
2022/07/31 06:04:04;;;;;;;9.00;4.53;;;19.20;99.90;;;;;;5091855;28;20048;-93
2022/07/31 06:06:30;;;;;;;9.73;5.05;;;19.30;99.90;;;;;;5090524;28;20677;-92
2022/07/31 06:08:56;;;;;;;7.65;4.63;;;19.30;99.90;;;;;;5090198;28;20457;-93
2022/07/31 06:11:22;;;;;;;8.93;4.68;;;19.20;99.90;;;;;;5107915;28;20044;-93
2022/07/31 06:13:47;;;;;;;8.10;4.38;;;19.30;99.90;;;;;;5094392;28;20375;-93
2022/07/31 06:16:14;;;;;;;8.02;4.57;;;19.30;99.90;;;;;;5111432;28;20151;-93
2022/07/31 06:18:40;;;;;;;9.60;4.63;;;19.40;99.90;;;;;;5111013;28;20150;-90
2022/07/31 06:21:06;;;;;;;9.30;4.65;;;19.40;99.90;;;;;;5093980;28;20097;-92
2022/07/31 06:23:31;;;;;;;9.82;4.63;;;19.40;99.90;;;;;;5094395;28;20044;-91
2022/07/31 06:25:57;;;;;;;8.88;4.53;;;19.40;99.90;;;;;;5093861;28;20405;-91
2022/07/31 06:28:23;;;;;;;8.57;4.78;;;19.40;99.90;;;;;;5094047;28;20044;-92
2022/07/31 06:30:48;;;;;;;8.75;4.15;;;19.40;99.90;;;;;;5093393;28;20051;-92
2022/07/31 06:33:14;;;;;;;8.60;4.57;;;19.50;99.90;;;;;;5094109;28;20039;-92
2022/07/31 06:35:39;;;;;;;9.27;4.43;;;19.50;99.90;;;;;;5110789;28;20043;-92
2022/07/31 06:38:05;;;;;;;8.43;4.55;;;19.50;99.90;;;;;;5093825;28;20044;-92
2022/07/31 06:40:31;;;;;;;10.75;4.20;;;19.60;99.90;;;;;;5093428;28;20050;-92
2022/07/31 06:42:56;;;;;;;9.13;4.63;;;19.60;99.90;;;;;;5093643;28;20105;-92
2022/07/31 06:45:23;;;;;;;9.20;4.60;;;19.60;99.90;;;;;;5094692;28;20521;-92
2022/07/31 06:47:48;;;;;;;8.63;4.43;;;19.70;99.90;;;;;;5110712;28;20065;-92
2022/07/31 06:50:14;;;;;;;8.75;4.30;;;19.70;99.90;;;;;;5093237;28;20447;-92
2022/07/31 06:52:40;;;;;;;8.43;4.35;;;19.70;99.90;;;;;;5093657;28;20072;-92
2022/07/31 06:55:07;;;;;;;8.85;3.95;;;19.80;99.90;;;;;;5110074;28;20066;-92
2022/07/31 06:57:33;;;;;;;9.50;4.10;;;19.80;99.90;;;;;;5094705;28;20044;-91
2022/07/31 06:59:58;;;;;;;9.38;4.45;;;19.80;99.90;;;;;;5093202;28;20132;-91
2022/07/31 07:02:24;;;;;;;8.73;4.45;;;19.80;99.90;;;;;;5093939;28;20043;-92
2022/07/31 07:04:49;;;;;;;8.00;4.10;;;19.90;99.90;;;;;;5093107;28;20104;-92
2022/07/31 07:07:15;;;;;;;10.02;4.30;;;19.90;99.90;;;;;;5093629;28;20046;-91
2022/07/31 07:09:41;;;;;;;9.93;4.65;;;19.90;99.90;;;;;;5092861;28;20631;-91
2022/07/31 07:12:07;;;;;;;10.60;4.50;;;20.00;99.90;;;;;;5093032;28;20123;-92
2022/07/31 07:14:32;;;;;;;9.75;4.68;;;20.10;99.90;;;;;;5093064;28;20047;-91
2022/07/31 07:17:02;;;;;;;12.52;4.88;;;20.10;99.90;;;;;;5093184;28;20040;-92
2022/07/31 07:19:28;;;;;;;8.73;4.72;;;20.20;99.90;;;;;;5092728;28;20051;-91
2022/07/31 07:21:53;;;;;;;11.00;5.60;;;20.20;99.90;;;;;;5092951;28;20051;-92
2022/07/31 07:24:19;;;;;;;11.52;5.20;;;20.20;99.90;;;;;;5092110;28;20040;-91
2022/07/31 07:26:44;;;;;;;8.43;5.28;;;20.20;99.90;;;;;;5089283;28;20040;-91
2022/07/31 07:29:10;;;;;;;12.07;5.95;;;20.20;99.90;;;;;;5092715;28;20051;-91
2022/07/31 07:31:37;;;;;;;10.27;5.88;;;20.30;99.90;;;;;;5092782;28;20085;-92
2022/07/31 07:34:05;;;;;;;9.88;6.30;;;20.30;99.90;;;;;;5093230;28;20036;-93
2022/07/31 07:36:32;;;;;;;9.07;6.47;;;20.30;99.90;;;;;;5109612;28;20044;-92
2022/07/31 07:38:57;;;;;;;9.68;7.43;;;20.30;99.90;;;;;;5109441;28;20086;-92
2022/07/31 07:41:24;;;;;;;10.73;6.50;;;20.30;99.90;;;;;;5092351;28;20076;-92
2022/07/31 07:43:50;;;;;;;11.35;6.45;;;20.30;99.90;;;;;;5092660;28;20040;-93
2022/07/31 07:46:15;;;;;;;11.23;8.50;;;20.40;99.90;;;;;;5092488;28;20044;-93
2022/07/31 07:48:41;;;;;;;10.30;7.82;;;20.40;99.90;;;;;;5092677;28;20131;-92
2022/07/31 07:51:06;;;;;;;11.73;8.57;;;20.30;99.90;;;;;;5092249;28;20048;-91
2022/07/31 07:53:32;;;;;;;12.68;7.97;;;20.40;99.90;;;;;;5109503;28;20040;-91
2022/07/31 07:55:57;;;;;;;10.75;7.82;;;20.40;99.90;;;;;;5075400;28;20478;-91
2022/07/31 07:58:23;;;;;;;11.55;7.65;;;20.40;99.90;;;;;;5091103;28;20074;-91
2022/07/31 08:00:49;;;;;;;10.90;7.90;;;20.40;99.90;;;;;;5088053;28;20077;-92
2022/07/31 08:03:15;;;;;;;11.13;8.48;;;20.50;99.90;;;;;;5092416;28;20126;-92
2022/07/31 08:05:41;;;;;;;11.25;8.32;;;20.50;99.90;;;;;;5093426;28;20079;-92
2022/07/31 08:08:07;;;;;;;11.07;8.45;;;20.50;99.90;;;;;;5091757;28;20067;-91
2022/07/31 08:10:32;;;;;;;13.00;9.07;;;20.50;99.90;;;;;;5108372;28;20129;-93
2022/07/31 08:12:58;;;;;;;12.27;8.73;;;20.60;99.90;;;;;;5092070;28;20036;-92
2022/07/31 08:15:24;;;;;;;14.18;8.88;;;20.60;99.90;;;;;;5108893;28;20482;-92
2022/07/31 08:17:50;;;;;;;12.55;9.32;;;20.60;99.90;;;;;;5090745;28;20059;-91
2022/07/31 08:20:16;;;;;;;12.50;8.80;;;20.60;99.90;;;;;;5091093;28;20493;-92
2022/07/31 08:22:41;;;;;;;13.27;9.30;;;20.60;99.90;;;;;;5108954;28;20159;-92
2022/07/31 08:25:07;;;;;;;12.65;9.07;;;20.60;99.90;;;;;;5108575;28;20044;-92
2022/07/31 08:27:33;;;;;;;13.90;9.38;;;20.70;99.90;;;;;;5075018;28;20089;-92
2022/07/31 08:30:00;;;;;;;15.02;9.30;;;20.60;99.90;;;;;;5108468;28;20044;-93
2022/07/31 08:32:26;;;;;;;12.32;10.00;;;20.70;99.90;;;;;;5108408;28;20047;-92
2022/07/31 08:34:53;;;;;;;12.60;8.80;;;20.70;99.90;;;;;;5090823;28;20093;-92
2022/07/31 08:37:19;;;;;;;11.45;9.50;;;20.70;99.90;;;;;;5108664;28;20075;-91
2022/07/31 08:39:47;;;;;;;15.27;9.57;;;20.80;99.90;;;;;;5091427;28;20071;-92
2022/07/31 08:42:13;;;;;;;12.75;8.95;;;20.80;99.90;;;;;;5108845;28;20397;-92
2022/07/31 08:44:40;;;;;;;13.80;8.73;;;20.80;99.90;;;;;;5091271;28;20420;-92
2022/07/31 08:47:11;;;;;;;11.63;9.10;;;20.90;99.90;;;;;;5100393;28;20068;-92
2022/07/31 08:49:45;;;;;;;11.40;8.55;;;21.00;99.90;;;;;;5080675;28;20410;-92
2022/07/31 08:52:16;;;;;;;12.13;8.35;;;21.00;99.90;;;;;;5091496;28;20073;-92
2022/07/31 08:54:44;;;;;;;15.25;9.18;;;21.10;99.90;;;;;;5089993;28;20040;-92
2022/07/31 08:57:10;;;;;;;13.25;8.70;;;21.00;99.90;;;;;;5089353;28;20118;-92
2022/07/31 08:59:39;;;;;;;11.93;7.72;;;21.10;99.90;;;;;;5090415;28;20048;-92
2022/07/31 09:02:05;;;;;;;10.68;7.85;;;21.10;99.90;;;;;;5091405;28;20032;-92
2022/07/31 09:04:31;;;;;;;12.18;7.95;;;21.10;99.90;;;;;;5090846;28;20455;-91
2022/07/31 09:06:59;;;;;;;11.32;8.10;;;21.10;99.90;;;;;;5097996;28;20154;-91
2022/07/31 09:09:25;;;;;;;11.90;8.15;;;21.10;99.90;;;;;;5090496;28;20044;-92
2022/07/31 09:11:54;;;;;;;10.35;8.25;;;21.10;99.90;;;;;;5090830;28;20563;-91
2022/07/31 09:14:26;;;;;;;11.02;7.90;;;21.10;99.90;;;;;;5090718;28;20119;-92
2022/07/31 09:16:53;;;;;;;10.73;7.97;;;21.10;99.90;;;;;;5092184;28;20464;-92
2022/07/31 09:19:21;;;;;;;10.60;7.95;;;21.10;99.90;;;;;;5107697;28;20078;-91
2022/07/31 09:21:46;;;;;;;12.07;8.25;;;21.10;99.90;;;;;;5090831;28;20048;-92
2022/07/31 09:24:26;;;;;;;10.68;7.95;;;21.10;99.90;;;;;;5090910;28;20048;-92
2022/07/31 09:27:01;;;;;;;12.25;8.00;;;21.10;99.90;;;;;;5108089;28;20123;-91
2022/07/31 09:29:48;;;;;;;11.38;7.97;;;21.10;99.90;;;;;;5107875;28;20051;-92
2022/07/31 09:32:13;;;;;;;12.23;8.45;;;21.10;99.90;;;;;;5107886;28;20052;-92
2022/07/31 09:34:41;;;;;;;10.77;8.30;;;21.00;99.90;;;;;;5107641;28;20040;-92
2022/07/31 09:37:08;;;;;;;11.00;8.15;;;21.00;99.90;;;;;;5107737;28;20448;-92
2022/07/31 09:39:35;;;;;;;14.52;8.80;;;21.00;99.90;;;;;;5107379;28;20040;-91
2022/07/31 09:42:01;;;;;;;10.52;7.68;;;21.00;99.90;;;;;;5108001;28;20039;-92
2022/07/31 09:44:36;;;;;;;11.52;9.18;;;20.90;99.90;;;;;;5090587;28;20047;-92
2022/07/31 09:47:02;;;;;;;11.68;9.05;;;20.90;99.90;;;;;;5092606;28;20194;-92
2022/07/31 09:49:32;;;;;;;12.82;9.10;;;21.00;99.90;;;;;;5111482;28;20135;-89
2022/07/31 09:51:59;;;;;;;12.00;9.45;;;21.00;99.90;;;;;;5094521;28;20044;-91
2022/07/31 09:54:28;;;;;;;12.00;9.63;;;21.00;99.90;;;;;;5094916;28;20093;-92
2022/07/31 09:56:54;;;;;;;10.93;9.00;;;21.00;99.90;;;;;;5094424;28;20443;-91
2022/07/31 09:59:19;;;;;;;11.68;9.10;;;21.10;99.90;;;;;;5095704;28;20548;-91
2022/07/31 10:01:49;;;;;;;12.70;9.15;;;21.10;99.90;;;;;;5111507;28;20079;-91
2022/07/31 10:04:21;;;;;;;13.30;9.43;;;21.10;99.90;;;;;;5094224;28;20386;-92
2022/07/31 10:06:50;;;;;;;11.75;9.65;;;21.10;99.90;;;;;;5111710;28;20402;-92
2022/07/31 10:09:18;;;;;;;11.45;9.35;;;21.10;99.90;;;;;;5110745;28;20040;-92
2022/07/31 10:11:46;;;;;;;12.90;9.70;;;21.10;99.90;;;;;;5110660;28;20036;-91
2022/07/31 10:14:27;;;;;;;13.75;8.90;;;21.20;99.90;;;;;;5094265;28;20093;-91
2022/07/31 10:16:55;;;;;;;13.82;9.50;;;21.20;99.90;;;;;;5094549;28;20047;-91
2022/07/31 10:19:21;;;;;;;13.88;10.07;;;21.10;99.90;;;;;;5093927;28;20040;-91
2022/07/31 10:21:56;;;;;;;14.27;10.82;;;21.20;99.90;;;;;;5094555;28;20557;-92
2022/07/31 10:24:26;;;;;;;12.75;9.52;;;21.30;99.90;;;;;;5094588;28;20040;-92
2022/07/31 10:26:56;;;;;;;12.68;9.05;;;21.40;99.90;;;;;;5111256;28;20036;-91
2022/07/31 10:29:23;;;;;;;13.77;9.55;;;21.50;99.90;;;;;;5110917;28;20044;-92
2022/07/31 10:31:49;;;;;;;11.43;9.27;;;21.50;99.90;;;;;;5093644;28;20048;-92
2022/07/31 10:34:16;;;;;;;13.55;9.95;;;21.60;99.90;;;;;;5111063;28;20047;-92
2022/07/31 10:36:45;;;;;;;13.20;9.68;;;21.60;99.90;;;;;;5111179;28;20048;-91
2022/07/31 10:39:17;;;;;;;12.52;9.90;;;21.60;99.90;;;;;;5093481;28;20097;-91
2022/07/31 10:41:54;;;;;;;12.60;10.63;;;21.60;99.90;;;;;;5095267;28;20039;-92
2022/07/31 10:44:40;;;;;;;13.20;11.10;;;21.70;99.90;;;;;;5110393;28;20440;-91
2022/07/31 10:47:13;;;;;;;13.90;10.45;;;21.70;99.90;;;;;;5093845;28;20036;-92
2022/07/31 10:49:42;;;;;;;13.85;11.57;;;21.70;99.90;;;;;;5093375;28;20071;-91
2022/07/31 10:52:08;;;;;;;13.63;11.27;;;21.80;99.90;;;;;;5093683;28;20390;-92
2022/07/31 10:54:42;;;;;;;15.20;11.80;;;21.80;99.90;;;;;;5093481;28;20089;-92
2022/07/31 10:57:19;;;;;;;15.52;11.88;;;21.80;99.90;;;;;;5093030;28;20040;-92
2022/07/31 10:59:45;;;;;;;14.40;12.05;;;21.80;99.90;;;;;;5094721;28;20044;-91
2022/07/31 11:02:10;;;;;;;14.23;12.48;;;21.80;99.90;;;;;;5093304;28;20063;-91
2022/07/31 11:04:36;;;;;;;14.88;13.23;;;21.80;99.90;;;;;;5094942;28;20040;-92
2022/07/31 11:07:13;;;;;;;16.25;12.90;;;21.80;99.90;;;;;;5082294;28;20043;-92
2022/07/31 11:09:40;;;;;;;15.70;13.63;;;21.80;99.90;;;;;;5074013;28;20052;-92
2022/07/31 11:12:19;;;;;;;14.80;13.20;;;21.80;99.90;;;;;;5076939;28;20040;-92
2022/07/31 11:14:44;;;;;;;15.82;13.57;;;21.80;99.90;;;;;;5080983;28;20032;-92
2022/07/31 11:17:10;;;;;;;15.52;13.82;;;21.70;99.90;;;;;;5072963;28;20097;-93
2022/07/31 11:19:41;;;;;;;15.45;13.32;;;21.70;99.90;;;;;;5086809;28;20062;-92
2022/07/31 11:22:14;;;;;;;14.73;13.13;;;21.60;99.90;;;;;;5109925;28;20040;-92
2022/07/31 11:24:40;;;;;;;15.77;12.55;;;21.60;99.90;;;;;;5092968;28;20036;-92
2022/07/31 11:27:06;;;;;;;17.80;13.27;;;21.60;99.90;;;;;;5093079;28;20047;-92
2022/07/31 11:29:37;;;;;;;15.63;13.65;;;21.50;99.90;;;;;;5092678;28;20051;-92
2022/07/31 11:32:05;;;;;;;16.85;14.43;;;21.50;99.90;;;;;;5092581;28;20040;-92
2022/07/31 11:34:48;;;;;;;16.23;14.25;;;21.50;99.90;;;;;;5093817;28;20469;-92
2022/07/31 11:37:19;;;;;;;;;;;21.50;99.90;;;;;;5092710;28;20125;-92
2022/07/31 11:39:45;;;;;;;16.90;15.10;;;21.30;99.90;;;;;;5074495;28;20011;-92
2022/07/31 11:42:11;;;;;;;16.10;14.40;;;21.30;99.90;;;;;;5072604;28;20190;-92
2022/07/31 11:44:37;;;;;;;15.73;14.02;;;21.20;99.90;;;;;;5072457;28;20498;-92
2022/07/31 11:47:02;;;;;;;17.13;15.23;;;21.20;99.90;;;;;;5072290;28;20556;-92
2022/07/31 11:49:31;;;;;;;16.95;15.25;;;21.10;99.90;;;;;;5072043;28;20045;-91
2022/07/31 11:52:03;;;;;;;17.85;16.08;;;21.00;99.90;;;;;;5072028;28;20058;-92
2022/07/31 11:54:29;;;;;;;19.90;18.00;;;20.90;99.90;;;;;;5072295;28;20041;-91
2022/07/31 11:56:55;;;;;;;20.27;18.13;;;20.80;99.90;;;;;;5073378;28;20036;-92
2022/07/31 11:59:38;;;;;;;21.50;17.90;;;20.60;99.90;;;;;;5071962;28;20086;-92
2022/07/31 12:02:08;;;;;;;22.25;19.95;;;20.60;99.90;;;;;;5071965;28;20051;-92
2022/07/31 12:04:35;;;;;;;22.13;20.02;;;20.50;99.90;;;;;;5071972;28;20075;-91
2022/07/31 12:07:02;;;;;;;22.92;20.73;;;20.40;99.90;;;;;;5071911;28;20055;-91
2022/07/31 12:09:29;;;;;;;22.75;20.45;;;20.40;99.90;;;;;;5070858;28;20076;-91
2022/07/31 12:11:55;;;;;;;22.88;20.58;;;20.30;99.90;;;;;;5071757;28;20121;-91
2022/07/31 12:14:32;;;;;;;23.27;21.10;;;20.30;99.90;;;;;;5071972;28;20044;-92
2022/07/31 12:16:58;;;;;;;24.77;22.27;;;20.30;99.90;;;;;;5071734;28;20090;-91
2022/07/31 12:19:26;;;;;;;25.20;22.60;;;20.30;99.90;;;;;;5071301;28;20552;-91
2022/07/31 12:21:51;;;;;;;25.67;23.00;;;20.20;99.90;;;;;;5071515;28;20045;-92
2022/07/31 12:24:19;;;;;;;25.48;23.08;;;20.20;99.90;;;;;;5071472;28;20071;-91
2022/07/31 12:26:58;;;;;;;24.27;21.77;;;20.20;99.90;;;;;;5088393;28;20048;-92
2022/07/31 12:29:38;;;;;;;26.13;23.55;;;20.20;99.90;;;;;;5071627;28;20086;-91
2022/07/31 12:32:05;;;;;;;26.15;23.50;;;20.20;99.90;;;;;;5071290;28;20444;-92
2022/07/31 12:34:37;;;;;;;28.08;25.20;;;20.20;99.90;;;;;;5071570;28;20048;-91
2022/07/31 12:37:12;;;;;;;26.35;23.88;;;20.20;99.90;;;;;;5071595;28;20113;-92
2022/07/31 12:39:50;;;;;;;25.55;23.15;;;20.10;99.90;;;;;;5071016;28;20060;-92
2022/07/31 12:42:33;;;;;;;25.33;22.83;;;20.20;99.90;;;;;;5071373;28;20086;-91